sensor_id;sensor_type;location;lat;lon;timestamp;P1;durP1;ratioP1;P2;durP2;ratioP2
65373;SDS011;52070;53.760;9.678;2023-02-22T00:00:24;137.57;;;17.60;;
65373;SDS011;52070;53.760;9.678;2023-02-22T00:03:01;147.07;;;15.90;;
65373;SDS011;52070;53.760;9.678;2023-02-22T00:05:29;135.05;;;16.45;;
65373;SDS011;52070;53.760;9.678;2023-02-22T00:07:56;115.97;;;16.80;;
65373;SDS011;52070;53.760;9.678;2023-02-22T00:10:25;102.43;;;16.60;;
65373;SDS011;52070;53.760;9.678;2023-02-22T00:12:54;114.00;;;17.25;;
65373;SDS011;52070;53.760;9.678;2023-02-22T00:15:22;124.45;;;15.98;;
65373;SDS011;52070;53.760;9.678;2023-02-22T00:20:19;104.53;;;16.92;;
65373;SDS011;52070;53.760;9.678;2023-02-22T00:22:49;106.10;;;17.30;;
65373;SDS011;52070;53.760;9.678;2023-02-22T00:25:18;111.45;;;17.25;;
65373;SDS011;52070;53.760;9.678;2023-02-22T00:27:46;110.13;;;16.98;;
65373;SDS011;52070;53.760;9.678;2023-02-22T00:30:17;99.95;;;16.52;;
65373;SDS011;52070;53.760;9.678;2023-02-22T00:32:45;103.88;;;16.67;;
65373;SDS011;52070;53.760;9.678;2023-02-22T00:35:14;106.75;;;16.48;;
65373;SDS011;52070;53.760;9.678;2023-02-22T00:37:42;115.03;;;17.63;;
65373;SDS011;52070;53.760;9.678;2023-02-22T00:40:11;124.15;;;17.75;;
65373;SDS011;52070;53.760;9.678;2023-02-22T00:42:41;120.47;;;17.42;;
65373;SDS011;52070;53.760;9.678;2023-02-22T00:45:08;117.25;;;17.90;;
65373;SDS011;52070;53.760;9.678;2023-02-22T00:47:35;110.32;;;17.40;;
65373;SDS011;52070;53.760;9.678;2023-02-22T00:50:02;133.05;;;19.02;;
65373;SDS011;52070;53.760;9.678;2023-02-22T00:52:30;101.63;;;17.63;;
65373;SDS011;52070;53.760;9.678;2023-02-22T00:54:57;117.10;;;17.05;;
65373;SDS011;52070;53.760;9.678;2023-02-22T00:57:25;122.88;;;16.88;;
65373;SDS011;52070;53.760;9.678;2023-02-22T00:59:52;181.73;;;18.95;;
65373;SDS011;52070;53.760;9.678;2023-02-22T01:02:19;119.18;;;17.42;;
65373;SDS011;52070;53.760;9.678;2023-02-22T01:04:46;131.63;;;18.38;;
65373;SDS011;52070;53.760;9.678;2023-02-22T01:07:13;133.43;;;20.40;;
65373;SDS011;52070;53.760;9.678;2023-02-22T01:09:40;156.73;;;18.10;;
65373;SDS011;52070;53.760;9.678;2023-02-22T01:12:08;138.93;;;19.02;;
65373;SDS011;52070;53.760;9.678;2023-02-22T01:14:37;170.85;;;18.00;;
65373;SDS011;52070;53.760;9.678;2023-02-22T01:17:04;133.75;;;18.75;;
65373;SDS011;52070;53.760;9.678;2023-02-22T01:19:31;216.65;;;19.27;;
65373;SDS011;52070;53.760;9.678;2023-02-22T01:21:58;120.68;;;17.98;;
65373;SDS011;52070;53.760;9.678;2023-02-22T01:24:25;107.80;;;17.80;;
65373;SDS011;52070;53.760;9.678;2023-02-22T01:26:52;161.10;;;19.92;;
65373;SDS011;52070;53.760;9.678;2023-02-22T01:29:19;109.03;;;17.15;;
65373;SDS011;52070;53.760;9.678;2023-02-22T01:31:51;155.63;;;19.55;;
65373;SDS011;52070;53.760;9.678;2023-02-22T01:34:20;188.25;;;18.92;;
65373;SDS011;52070;53.760;9.678;2023-02-22T01:36:47;116.82;;;18.67;;
65373;SDS011;52070;53.760;9.678;2023-02-22T01:39:14;134.65;;;16.75;;
65373;SDS011;52070;53.760;9.678;2023-02-22T01:41:42;133.30;;;16.33;;
65373;SDS011;52070;53.760;9.678;2023-02-22T01:44:20;91.75;;;15.73;;
65373;SDS011;52070;53.760;9.678;2023-02-22T01:46:53;247.02;;;19.67;;
65373;SDS011;52070;53.760;9.678;2023-02-22T01:49:20;116.07;;;17.55;;
65373;SDS011;52070;53.760;9.678;2023-02-22T01:51:49;99.60;;;16.00;;
65373;SDS011;52070;53.760;9.678;2023-02-22T01:54:19;274.95;;;19.02;;
65373;SDS011;52070;53.760;9.678;2023-02-22T01:56:51;105.95;;;16.65;;
65373;SDS011;52070;53.760;9.678;2023-02-22T01:59:22;106.72;;;17.40;;
65373;SDS011;52070;53.760;9.678;2023-02-22T02:01:49;124.90;;;17.25;;
65373;SDS011;52070;53.760;9.678;2023-02-22T02:04:18;225.90;;;18.83;;
65373;SDS011;52070;53.760;9.678;2023-02-22T02:06:50;97.95;;;16.27;;
65373;SDS011;52070;53.760;9.678;2023-02-22T02:09:19;76.75;;;14.90;;
65373;SDS011;52070;53.760;9.678;2023-02-22T02:11:51;108.55;;;17.55;;
65373;SDS011;52070;53.760;9.678;2023-02-22T02:14:19;244.10;;;17.58;;
65373;SDS011;52070;53.760;9.678;2023-02-22T02:16:46;276.88;;;20.20;;
65373;SDS011;52070;53.760;9.678;2023-02-22T02:19:19;103.88;;;16.90;;
65373;SDS011;52070;53.760;9.678;2023-02-22T02:22:04;94.85;;;15.63;;
65373;SDS011;52070;53.760;9.678;2023-02-22T02:27:51;106.90;;;17.67;;
65373;SDS011;52070;53.760;9.678;2023-02-22T02:30:42;122.95;;;17.67;;
65373;SDS011;52070;53.760;9.678;2023-02-22T02:33:24;107.57;;;16.25;;
65373;SDS011;52070;53.760;9.678;2023-02-22T02:35:55;116.53;;;17.45;;
65373;SDS011;52070;53.760;9.678;2023-02-22T02:38:30;195.07;;;18.75;;
65373;SDS011;52070;53.760;9.678;2023-02-22T02:41:02;180.00;;;19.13;;
65373;SDS011;52070;53.760;9.678;2023-02-22T02:43:33;114.68;;;18.25;;
65373;SDS011;52070;53.760;9.678;2023-02-22T02:46:06;131.63;;;19.02;;
65373;SDS011;52070;53.760;9.678;2023-02-22T02:48:39;131.35;;;18.27;;
65373;SDS011;52070;53.760;9.678;2023-02-22T02:51:09;108.07;;;18.10;;
65373;SDS011;52070;53.760;9.678;2023-02-22T02:53:39;101.85;;;17.50;;
65373;SDS011;52070;53.760;9.678;2023-02-22T02:56:10;132.93;;;19.02;;
65373;SDS011;52070;53.760;9.678;2023-02-22T02:58:42;98.63;;;18.67;;
65373;SDS011;52070;53.760;9.678;2023-02-22T03:01:14;152.98;;;18.30;;
65373;SDS011;52070;53.760;9.678;2023-02-22T03:03:53;236.52;;;18.48;;
65373;SDS011;52070;53.760;9.678;2023-02-22T03:06:39;91.93;;;15.95;;
65373;SDS011;52070;53.760;9.678;2023-02-22T03:09:23;143.95;;;17.35;;
65373;SDS011;52070;53.760;9.678;2023-02-22T03:12:00;87.78;;;15.77;;
65373;SDS011;52070;53.760;9.678;2023-02-22T03:17:10;98.40;;;15.85;;
65373;SDS011;52070;53.760;9.678;2023-02-22T03:19:46;81.25;;;16.45;;
65373;SDS011;52070;53.760;9.678;2023-02-22T03:22:19;88.93;;;16.27;;
65373;SDS011;52070;53.760;9.678;2023-02-22T03:24:50;88.65;;;15.70;;
65373;SDS011;52070;53.760;9.678;2023-02-22T03:27:24;78.40;;;16.38;;
65373;SDS011;52070;53.760;9.678;2023-02-22T03:29:55;110.03;;;16.80;;
65373;SDS011;52070;53.760;9.678;2023-02-22T03:32:26;100.93;;;15.68;;
65373;SDS011;52070;53.760;9.678;2023-02-22T03:35:00;97.50;;;15.75;;
65373;SDS011;52070;53.760;9.678;2023-02-22T03:37:32;116.40;;;16.60;;
65373;SDS011;52070;53.760;9.678;2023-02-22T03:42:38;95.28;;;16.48;;
65373;SDS011;52070;53.760;9.678;2023-02-22T03:45:08;90.22;;;16.13;;
65373;SDS011;52070;53.760;9.678;2023-02-22T03:47:37;87.47;;;16.42;;
65373;SDS011;52070;53.760;9.678;2023-02-22T03:50:10;152.18;;;16.90;;
65373;SDS011;52070;53.760;9.678;2023-02-22T03:52:40;102.15;;;16.23;;
65373;SDS011;52070;53.760;9.678;2023-02-22T03:55:07;81.93;;;15.68;;
65373;SDS011;52070;53.760;9.678;2023-02-22T03:57:36;184.20;;;16.85;;
65373;SDS011;52070;53.760;9.678;2023-02-22T04:00:06;147.68;;;16.33;;
65373;SDS011;52070;53.760;9.678;2023-02-22T04:02:35;114.97;;;16.07;;
65373;SDS011;52070;53.760;9.678;2023-02-22T04:05:03;93.05;;;15.85;;
65373;SDS011;52070;53.760;9.678;2023-02-22T04:07:31;159.35;;;15.38;;
65373;SDS011;52070;53.760;9.678;2023-02-22T04:09:58;127.22;;;16.40;;
65373;SDS011;52070;53.760;9.678;2023-02-22T04:12:27;112.38;;;15.13;;
65373;SDS011;52070;53.760;9.678;2023-02-22T04:14:56;96.45;;;15.02;;
65373;SDS011;52070;53.760;9.678;2023-02-22T04:17:22;89.88;;;15.32;;
65373;SDS011;52070;53.760;9.678;2023-02-22T04:19:49;139.55;;;15.32;;
65373;SDS011;52070;53.760;9.678;2023-02-22T04:22:16;88.22;;;15.30;;
65373;SDS011;52070;53.760;9.678;2023-02-22T04:24:45;198.02;;;16.02;;
65373;SDS011;52070;53.760;9.678;2023-02-22T04:27:13;97.53;;;14.20;;
65373;SDS011;52070;53.760;9.678;2023-02-22T04:29:40;89.32;;;15.70;;
65373;SDS011;52070;53.760;9.678;2023-02-22T04:32:07;95.25;;;14.50;;
65373;SDS011;52070;53.760;9.678;2023-02-22T04:34:34;190.23;;;16.65;;
65373;SDS011;52070;53.760;9.678;2023-02-22T04:37:01;104.07;;;14.75;;
65373;SDS011;52070;53.760;9.678;2023-02-22T04:39:28;154.07;;;16.25;;
65373;SDS011;52070;53.760;9.678;2023-02-22T04:41:56;94.93;;;15.80;;
65373;SDS011;52070;53.760;9.678;2023-02-22T04:44:23;99.72;;;15.40;;
65373;SDS011;52070;53.760;9.678;2023-02-22T04:46:50;267.25;;;17.52;;
65373;SDS011;52070;53.760;9.678;2023-02-22T04:49:17;119.50;;;15.13;;
65373;SDS011;52070;53.760;9.678;2023-02-22T04:51:44;89.68;;;15.68;;
65373;SDS011;52070;53.760;9.678;2023-02-22T04:54:11;82.80;;;15.02;;
65373;SDS011;52070;53.760;9.678;2023-02-22T04:56:38;121.03;;;17.30;;
65373;SDS011;52070;53.760;9.678;2023-02-22T04:59:06;102.53;;;14.95;;
65373;SDS011;52070;53.760;9.678;2023-02-22T05:01:34;156.38;;;16.75;;
65373;SDS011;52070;53.760;9.678;2023-02-22T05:04:02;99.00;;;16.60;;
65373;SDS011;52070;53.760;9.678;2023-02-22T05:06:30;172.05;;;16.98;;
65373;SDS011;52070;53.760;9.678;2023-02-22T05:08:57;105.45;;;16.85;;
65373;SDS011;52070;53.760;9.678;2023-02-22T05:11:24;120.00;;;17.80;;
65373;SDS011;52070;53.760;9.678;2023-02-22T05:13:51;144.63;;;17.48;;
65373;SDS011;52070;53.760;9.678;2023-02-22T05:16:19;117.03;;;15.23;;
65373;SDS011;52070;53.760;9.678;2023-02-22T05:18:46;114.32;;;17.13;;
65373;SDS011;52070;53.760;9.678;2023-02-22T05:21:13;137.35;;;16.90;;
65373;SDS011;52070;53.760;9.678;2023-02-22T05:23:40;152.93;;;17.50;;
65373;SDS011;52070;53.760;9.678;2023-02-22T05:26:07;161.20;;;16.83;;
65373;SDS011;52070;53.760;9.678;2023-02-22T05:28:35;122.13;;;17.00;;
65373;SDS011;52070;53.760;9.678;2023-02-22T05:31:02;153.73;;;18.35;;
65373;SDS011;52070;53.760;9.678;2023-02-22T05:33:30;143.27;;;17.85;;
65373;SDS011;52070;53.760;9.678;2023-02-22T05:35:57;115.53;;;16.90;;
65373;SDS011;52070;53.760;9.678;2023-02-22T05:38:24;127.68;;;17.17;;
65373;SDS011;52070;53.760;9.678;2023-02-22T05:40:51;109.80;;;17.52;;
65373;SDS011;52070;53.760;9.678;2023-02-22T05:43:18;154.48;;;18.10;;
65373;SDS011;52070;53.760;9.678;2023-02-22T05:45:45;123.30;;;18.20;;
65373;SDS011;52070;53.760;9.678;2023-02-22T05:48:12;120.07;;;16.95;;
65373;SDS011;52070;53.760;9.678;2023-02-22T05:50:40;137.82;;;18.90;;
65373;SDS011;52070;53.760;9.678;2023-02-22T05:53:09;126.63;;;18.83;;
65373;SDS011;52070;53.760;9.678;2023-02-22T05:55:36;149.70;;;18.52;;
65373;SDS011;52070;53.760;9.678;2023-02-22T05:58:02;146.63;;;18.95;;
65373;SDS011;52070;53.760;9.678;2023-02-22T06:00:30;133.27;;;20.25;;
65373;SDS011;52070;53.760;9.678;2023-02-22T06:02:58;164.80;;;21.25;;
65373;SDS011;52070;53.760;9.678;2023-02-22T06:05:26;148.68;;;20.42;;
65373;SDS011;52070;53.760;9.678;2023-02-22T06:07:56;146.60;;;19.05;;
65373;SDS011;52070;53.760;9.678;2023-02-22T06:10:23;158.50;;;20.42;;
65373;SDS011;52070;53.760;9.678;2023-02-22T06:12:52;146.48;;;20.65;;
65373;SDS011;52070;53.760;9.678;2023-02-22T06:15:20;164.07;;;21.13;;
65373;SDS011;52070;53.760;9.678;2023-02-22T06:17:49;113.43;;;19.60;;
65373;SDS011;52070;53.760;9.678;2023-02-22T06:20:17;137.02;;;21.10;;
65373;SDS011;52070;53.760;9.678;2023-02-22T06:22:46;108.45;;;20.30;;
65373;SDS011;52070;53.760;9.678;2023-02-22T06:25:15;141.88;;;21.75;;
65373;SDS011;52070;53.760;9.678;2023-02-22T06:27:44;111.38;;;20.50;;
65373;SDS011;52070;53.760;9.678;2023-02-22T06:30:12;121.65;;;22.02;;
65373;SDS011;52070;53.760;9.678;2023-02-22T06:32:40;156.98;;;22.08;;
65373;SDS011;52070;53.760;9.678;2023-02-22T06:35:07;147.15;;;22.42;;
65373;SDS011;52070;53.760;9.678;2023-02-22T06:37:34;111.32;;;20.92;;
65373;SDS011;52070;53.760;9.678;2023-02-22T06:40:01;170.82;;;22.75;;
65373;SDS011;52070;53.760;9.678;2023-02-22T06:42:30;138.23;;;22.05;;
65373;SDS011;52070;53.760;9.678;2023-02-22T06:44:57;118.72;;;20.17;;
65373;SDS011;52070;53.760;9.678;2023-02-22T06:47:24;154.90;;;21.05;;
65373;SDS011;52070;53.760;9.678;2023-02-22T06:49:51;119.55;;;21.10;;
65373;SDS011;52070;53.760;9.678;2023-02-22T06:52:19;107.20;;;21.13;;
65373;SDS011;52070;53.760;9.678;2023-02-22T06:54:47;121.55;;;21.45;;
65373;SDS011;52070;53.760;9.678;2023-02-22T06:57:14;110.85;;;20.13;;
65373;SDS011;52070;53.760;9.678;2023-02-22T06:59:43;171.15;;;21.98;;
65373;SDS011;52070;53.760;9.678;2023-02-22T07:02:10;235.18;;;22.30;;
65373;SDS011;52070;53.760;9.678;2023-02-22T07:04:38;115.47;;;20.90;;
65373;SDS011;52070;53.760;9.678;2023-02-22T07:07:05;184.65;;;22.08;;
65373;SDS011;52070;53.760;9.678;2023-02-22T07:09:32;117.13;;;20.30;;
65373;SDS011;52070;53.760;9.678;2023-02-22T07:11:59;124.43;;;20.50;;
65373;SDS011;52070;53.760;9.678;2023-02-22T07:14:26;125.85;;;21.48;;
65373;SDS011;52070;53.760;9.678;2023-02-22T07:16:54;119.97;;;20.02;;
65373;SDS011;52070;53.760;9.678;2023-02-22T07:19:21;125.40;;;21.08;;
65373;SDS011;52070;53.760;9.678;2023-02-22T07:21:49;127.63;;;20.77;;
65373;SDS011;52070;53.760;9.678;2023-02-22T07:24:21;111.38;;;20.15;;
65373;SDS011;52070;53.760;9.678;2023-02-22T07:26:48;149.98;;;22.17;;
65373;SDS011;52070;53.760;9.678;2023-02-22T07:29:15;136.30;;;21.77;;
65373;SDS011;52070;53.760;9.678;2023-02-22T07:31:42;165.25;;;22.88;;
65373;SDS011;52070;53.760;9.678;2023-02-22T07:34:10;150.38;;;22.08;;
65373;SDS011;52070;53.760;9.678;2023-02-22T07:36:37;114.38;;;22.65;;
65373;SDS011;52070;53.760;9.678;2023-02-22T07:39:04;127.57;;;22.67;;
65373;SDS011;52070;53.760;9.678;2023-02-22T07:41:33;136.13;;;24.83;;
65373;SDS011;52070;53.760;9.678;2023-02-22T07:44:00;131.55;;;23.85;;
65373;SDS011;52070;53.760;9.678;2023-02-22T07:46:27;135.38;;;23.60;;
65373;SDS011;52070;53.760;9.678;2023-02-22T07:48:54;145.13;;;24.00;;
65373;SDS011;52070;53.760;9.678;2023-02-22T07:51:22;136.13;;;24.58;;
65373;SDS011;52070;53.760;9.678;2023-02-22T07:53:49;139.90;;;24.55;;
65373;SDS011;52070;53.760;9.678;2023-02-22T07:56:16;149.82;;;25.05;;
65373;SDS011;52070;53.760;9.678;2023-02-22T07:58:43;146.77;;;24.95;;
65373;SDS011;52070;53.760;9.678;2023-02-22T08:01:10;119.88;;;24.55;;
65373;SDS011;52070;53.760;9.678;2023-02-22T08:03:37;131.63;;;24.77;;
65373;SDS011;52070;53.760;9.678;2023-02-22T08:06:04;142.38;;;25.40;;
65373;SDS011;52070;53.760;9.678;2023-02-22T08:08:34;143.02;;;24.77;;
65373;SDS011;52070;53.760;9.678;2023-02-22T08:11:01;120.55;;;24.60;;
65373;SDS011;52070;53.760;9.678;2023-02-22T08:13:28;156.68;;;24.40;;
65373;SDS011;52070;53.760;9.678;2023-02-22T08:15:55;104.22;;;23.20;;
65373;SDS011;52070;53.760;9.678;2023-02-22T08:18:23;117.78;;;23.90;;
65373;SDS011;52070;53.760;9.678;2023-02-22T08:20:51;114.70;;;24.85;;
65373;SDS011;52070;53.760;9.678;2023-02-22T08:23:19;121.07;;;24.50;;
65373;SDS011;52070;53.760;9.678;2023-02-22T08:25:51;122.68;;;25.77;;
65373;SDS011;52070;53.760;9.678;2023-02-22T08:28:19;121.22;;;25.17;;
65373;SDS011;52070;53.760;9.678;2023-02-22T08:30:48;121.07;;;24.65;;
65373;SDS011;52070;53.760;9.678;2023-02-22T08:33:16;116.00;;;24.95;;
65373;SDS011;52070;53.760;9.678;2023-02-22T08:35:44;126.40;;;25.25;;
65373;SDS011;52070;53.760;9.678;2023-02-22T08:38:15;116.70;;;26.73;;
65373;SDS011;52070;53.760;9.678;2023-02-22T08:43:14;106.25;;;24.83;;
65373;SDS011;52070;53.760;9.678;2023-02-22T08:45:41;109.25;;;23.98;;
65373;SDS011;52070;53.760;9.678;2023-02-22T08:48:09;113.85;;;24.17;;
65373;SDS011;52070;53.760;9.678;2023-02-22T08:50:36;100.93;;;25.00;;
65373;SDS011;52070;53.760;9.678;2023-02-22T08:53:06;103.65;;;23.73;;
65373;SDS011;52070;53.760;9.678;2023-02-22T08:55:34;106.75;;;25.42;;
65373;SDS011;52070;53.760;9.678;2023-02-22T08:58:02;97.20;;;24.13;;
65373;SDS011;52070;53.760;9.678;2023-02-22T09:00:35;87.30;;;22.98;;
65373;SDS011;52070;53.760;9.678;2023-02-22T09:05:32;80.40;;;20.88;;
65373;SDS011;52070;53.760;9.678;2023-02-22T09:07:59;79.30;;;21.98;;
65373;SDS011;52070;53.760;9.678;2023-02-22T09:10:27;73.63;;;21.02;;
65373;SDS011;52070;53.760;9.678;2023-02-22T09:12:56;80.95;;;22.60;;
65373;SDS011;52070;53.760;9.678;2023-02-22T09:15:25;73.03;;;21.65;;
65373;SDS011;52070;53.760;9.678;2023-02-22T09:17:54;69.80;;;21.10;;
65373;SDS011;52070;53.760;9.678;2023-02-22T09:20:22;59.25;;;20.58;;
65373;SDS011;52070;53.760;9.678;2023-02-22T09:22:50;61.75;;;19.35;;
65373;SDS011;52070;53.760;9.678;2023-02-22T09:25:18;61.60;;;19.63;;
65373;SDS011;52070;53.760;9.678;2023-02-22T09:27:46;55.58;;;18.20;;
65373;SDS011;52070;53.760;9.678;2023-02-22T09:30:20;55.53;;;19.02;;
65373;SDS011;52070;53.760;9.678;2023-02-22T09:32:52;57.83;;;19.33;;
65373;SDS011;52070;53.760;9.678;2023-02-22T09:35:23;50.65;;;18.77;;
65373;SDS011;52070;53.760;9.678;2023-02-22T09:37:52;47.35;;;18.23;;
65373;SDS011;52070;53.760;9.678;2023-02-22T09:40:19;47.20;;;17.85;;
65373;SDS011;52070;53.760;9.678;2023-02-22T09:43:03;42.05;;;17.08;;
65373;SDS011;52070;53.760;9.678;2023-02-22T09:45:36;41.72;;;17.15;;
65373;SDS011;52070;53.760;9.678;2023-02-22T09:48:10;43.42;;;16.92;;
65373;SDS011;52070;53.760;9.678;2023-02-22T09:50:41;36.13;;;16.67;;
65373;SDS011;52070;53.760;9.678;2023-02-22T09:53:16;37.75;;;16.88;;
65373;SDS011;52070;53.760;9.678;2023-02-22T09:55:54;38.40;;;16.27;;
65373;SDS011;52070;53.760;9.678;2023-02-22T09:58:25;36.45;;;16.35;;
65373;SDS011;52070;53.760;9.678;2023-02-22T10:01:00;39.67;;;16.95;;
65373;SDS011;52070;53.760;9.678;2023-02-22T10:03:44;35.35;;;16.45;;
65373;SDS011;52070;53.760;9.678;2023-02-22T10:06:16;36.78;;;17.55;;
65373;SDS011;52070;53.760;9.678;2023-02-22T10:08:46;34.35;;;17.90;;
65373;SDS011;52070;53.760;9.678;2023-02-22T10:11:20;34.55;;;17.58;;
65373;SDS011;52070;53.760;9.678;2023-02-22T10:13:59;34.53;;;18.00;;
65373;SDS011;52070;53.760;9.678;2023-02-22T10:16:33;39.80;;;18.67;;
65373;SDS011;52070;53.760;9.678;2023-02-22T10:19:11;35.10;;;19.08;;
65373;SDS011;52070;53.760;9.678;2023-02-22T10:21:50;39.42;;;20.17;;
65373;SDS011;52070;53.760;9.678;2023-02-22T10:24:33;43.33;;;20.02;;
65373;SDS011;52070;53.760;9.678;2023-02-22T10:27:10;41.22;;;19.95;;
65373;SDS011;52070;53.760;9.678;2023-02-22T10:29:42;35.67;;;18.67;;
65373;SDS011;52070;53.760;9.678;2023-02-22T10:32:13;34.92;;;16.80;;
65373;SDS011;52070;53.760;9.678;2023-02-22T10:34:46;33.75;;;17.13;;
65373;SDS011;52070;53.760;9.678;2023-02-22T10:37:18;34.42;;;16.85;;
65373;SDS011;52070;53.760;9.678;2023-02-22T10:39:52;32.85;;;16.75;;
65373;SDS011;52070;53.760;9.678;2023-02-22T10:42:24;35.72;;;17.92;;
65373;SDS011;52070;53.760;9.678;2023-02-22T10:44:53;37.63;;;18.23;;
65373;SDS011;52070;53.760;9.678;2023-02-22T10:47:20;35.97;;;17.80;;
65373;SDS011;52070;53.760;9.678;2023-02-22T10:49:49;42.53;;;19.05;;
65373;SDS011;52070;53.760;9.678;2023-02-22T10:52:22;39.90;;;19.33;;
65373;SDS011;52070;53.760;9.678;2023-02-22T10:54:53;40.10;;;20.70;;
65373;SDS011;52070;53.760;9.678;2023-02-22T10:57:21;38.03;;;19.65;;
65373;SDS011;52070;53.760;9.678;2023-02-22T10:59:51;39.43;;;20.60;;
65373;SDS011;52070;53.760;9.678;2023-02-22T11:02:22;39.67;;;20.88;;
65373;SDS011;52070;53.760;9.678;2023-02-22T11:04:54;38.40;;;20.90;;
65373;SDS011;52070;53.760;9.678;2023-02-22T11:07:23;39.50;;;21.07;;
65373;SDS011;52070;53.760;9.678;2023-02-22T11:09:53;37.60;;;20.38;;
65373;SDS011;52070;53.760;9.678;2023-02-22T11:12:24;44.58;;;20.10;;
65373;SDS011;52070;53.760;9.678;2023-02-22T11:14:53;44.25;;;19.98;;
65373;SDS011;52070;53.760;9.678;2023-02-22T11:17:23;39.55;;;20.13;;
65373;SDS011;52070;53.760;9.678;2023-02-22T11:19:58;37.33;;;18.90;;
65373;SDS011;52070;53.760;9.678;2023-02-22T11:22:26;36.53;;;19.42;;
65373;SDS011;52070;53.760;9.678;2023-02-22T11:24:58;37.40;;;17.90;;
65373;SDS011;52070;53.760;9.678;2023-02-22T11:27:29;34.10;;;17.98;;
65373;SDS011;52070;53.760;9.678;2023-02-22T11:30:20;32.90;;;17.27;;
65373;SDS011;52070;53.760;9.678;2023-02-22T11:32:53;30.23;;;16.08;;
65373;SDS011;52070;53.760;9.678;2023-02-22T11:35:34;32.65;;;16.73;;
65373;SDS011;52070;53.760;9.678;2023-02-22T11:40:47;28.45;;;15.13;;
65373;SDS011;52070;53.760;9.678;2023-02-22T11:43:32;25.63;;;12.98;;
65373;SDS011;52070;53.760;9.678;2023-02-22T11:46:01;26.10;;;13.85;;
65373;SDS011;52070;53.760;9.678;2023-02-22T11:48:31;26.48;;;12.98;;
65373;SDS011;52070;53.760;9.678;2023-02-22T11:51:08;24.52;;;11.88;;
65373;SDS011;52070;53.760;9.678;2023-02-22T11:53:44;25.35;;;12.73;;
65373;SDS011;52070;53.760;9.678;2023-02-22T11:56:21;23.83;;;12.25;;
65373;SDS011;52070;53.760;9.678;2023-02-22T11:58:52;28.08;;;12.80;;
65373;SDS011;52070;53.760;9.678;2023-02-22T12:01:28;24.95;;;12.18;;
65373;SDS011;52070;53.760;9.678;2023-02-22T12:04:13;26.83;;;12.93;;
65373;SDS011;52070;53.760;9.678;2023-02-22T12:07:12;25.67;;;12.55;;
65373;SDS011;52070;53.760;9.678;2023-02-22T12:09:50;25.88;;;12.90;;
65373;SDS011;52070;53.760;9.678;2023-02-22T12:12:33;26.20;;;12.45;;
65373;SDS011;52070;53.760;9.678;2023-02-22T12:15:07;29.13;;;14.30;;
65373;SDS011;52070;53.760;9.678;2023-02-22T12:17:43;29.30;;;13.50;;
65373;SDS011;52070;53.760;9.678;2023-02-22T12:20:19;26.77;;;13.52;;
65373;SDS011;52070;53.760;9.678;2023-02-22T12:22:55;27.65;;;12.65;;
65373;SDS011;52070;53.760;9.678;2023-02-22T12:25:30;28.88;;;13.77;;
65373;SDS011;52070;53.760;9.678;2023-02-22T12:28:01;25.38;;;13.02;;
65373;SDS011;52070;53.760;9.678;2023-02-22T12:30:36;27.15;;;13.35;;
65373;SDS011;52070;53.760;9.678;2023-02-22T12:35:38;32.47;;;13.77;;
65373;SDS011;52070;53.760;9.678;2023-02-22T12:38:10;23.33;;;12.50;;
65373;SDS011;52070;53.760;9.678;2023-02-22T12:40:44;25.10;;;13.98;;
65373;SDS011;52070;53.760;9.678;2023-02-22T12:43:18;28.13;;;14.15;;
65373;SDS011;52070;53.760;9.678;2023-02-22T12:45:50;27.83;;;14.65;;
65373;SDS011;52070;53.760;9.678;2023-02-22T12:48:29;26.10;;;13.85;;
65373;SDS011;52070;53.760;9.678;2023-02-22T12:51:05;26.50;;;13.95;;
65373;SDS011;52070;53.760;9.678;2023-02-22T12:53:43;28.17;;;14.55;;
65373;SDS011;52070;53.760;9.678;2023-02-22T12:56:18;24.90;;;12.73;;
65373;SDS011;52070;53.760;9.678;2023-02-22T12:58:50;26.67;;;13.05;;
65373;SDS011;52070;53.760;9.678;2023-02-22T13:01:23;27.30;;;13.60;;
65373;SDS011;52070;53.760;9.678;2023-02-22T13:03:54;28.40;;;13.35;;
65373;SDS011;52070;53.760;9.678;2023-02-22T13:06:27;26.52;;;13.55;;
65373;SDS011;52070;53.760;9.678;2023-02-22T13:09:06;23.90;;;12.70;;
65373;SDS011;52070;53.760;9.678;2023-02-22T13:14:15;23.80;;;12.82;;
65373;SDS011;52070;53.760;9.678;2023-02-22T13:17:03;21.90;;;12.23;;
65373;SDS011;52070;53.760;9.678;2023-02-22T13:19:46;25.38;;;13.52;;
65373;SDS011;52070;53.760;9.678;2023-02-22T13:22:20;25.90;;;12.63;;
65373;SDS011;52070;53.760;9.678;2023-02-22T13:25:01;26.45;;;13.02;;
65373;SDS011;52070;53.760;9.678;2023-02-22T13:27:33;21.80;;;11.85;;
65373;SDS011;52070;53.760;9.678;2023-02-22T13:30:09;23.52;;;12.43;;
65373;SDS011;52070;53.760;9.678;2023-02-22T13:33:00;25.48;;;12.45;;
65373;SDS011;52070;53.760;9.678;2023-02-22T13:35:37;25.67;;;12.80;;
65373;SDS011;52070;53.760;9.678;2023-02-22T13:38:17;24.88;;;12.05;;
65373;SDS011;52070;53.760;9.678;2023-02-22T13:41:14;23.77;;;11.93;;
65373;SDS011;52070;53.760;9.678;2023-02-22T13:43:53;21.98;;;11.20;;
65373;SDS011;52070;53.760;9.678;2023-02-22T13:49:38;24.75;;;11.80;;
65373;SDS011;52070;53.760;9.678;2023-02-22T13:52:16;20.75;;;11.27;;
65373;SDS011;52070;53.760;9.678;2023-02-22T13:54:48;22.52;;;10.90;;
65373;SDS011;52070;53.760;9.678;2023-02-22T13:57:21;19.35;;;10.95;;
65373;SDS011;52070;53.760;9.678;2023-02-22T14:02:56;21.83;;;10.63;;
65373;SDS011;52070;53.760;9.678;2023-02-22T14:05:35;19.73;;;10.52;;
65373;SDS011;52070;53.760;9.678;2023-02-22T14:11:05;21.77;;;10.25;;
65373;SDS011;52070;53.760;9.678;2023-02-22T14:16:53;20.45;;;9.95;;
65373;SDS011;52070;53.760;9.678;2023-02-22T14:19:59;19.20;;;10.10;;
65373;SDS011;52070;53.760;9.678;2023-02-22T14:22:29;22.00;;;10.27;;
65373;SDS011;52070;53.760;9.678;2023-02-22T14:24:56;22.25;;;10.63;;
65373;SDS011;52070;53.760;9.678;2023-02-22T14:27:23;19.63;;;10.38;;
65373;SDS011;52070;53.760;9.678;2023-02-22T14:30:05;19.70;;;9.97;;
65373;SDS011;52070;53.760;9.678;2023-02-22T14:32:49;22.85;;;9.98;;
65373;SDS011;52070;53.760;9.678;2023-02-22T14:35:17;22.48;;;10.45;;
65373;SDS011;52070;53.760;9.678;2023-02-22T14:37:48;18.70;;;10.45;;
65373;SDS011;52070;53.760;9.678;2023-02-22T14:40:20;19.27;;;10.23;;
65373;SDS011;52070;53.760;9.678;2023-02-22T14:42:54;19.73;;;10.20;;
65373;SDS011;52070;53.760;9.678;2023-02-22T14:45:29;18.13;;;10.45;;
65373;SDS011;52070;53.760;9.678;2023-02-22T14:47:58;19.48;;;10.90;;
65373;SDS011;52070;53.760;9.678;2023-02-22T14:50:40;20.73;;;10.90;;
65373;SDS011;52070;53.760;9.678;2023-02-22T14:53:15;19.05;;;10.05;;
65373;SDS011;52070;53.760;9.678;2023-02-22T14:55:51;19.50;;;10.52;;
65373;SDS011;52070;53.760;9.678;2023-02-22T14:58:22;19.50;;;10.88;;
65373;SDS011;52070;53.760;9.678;2023-02-22T15:00:56;22.65;;;12.15;;
65373;SDS011;52070;53.760;9.678;2023-02-22T15:03:26;24.75;;;11.10;;
65373;SDS011;52070;53.760;9.678;2023-02-22T15:06:02;20.23;;;12.00;;
65373;SDS011;52070;53.760;9.678;2023-02-22T15:08:30;18.40;;;10.80;;
65373;SDS011;52070;53.760;9.678;2023-02-22T15:10:58;19.50;;;11.27;;
65373;SDS011;52070;53.760;9.678;2023-02-22T15:13:27;22.27;;;11.15;;